Time;durP1;ratioP1;P1;durP2;ratioP2;P2;SDS_P1;SDS_P2;PMS_P1;PMS_P2;Temp;Humidity;BMP_temperature;BMP_pressure;BME280_temperature;BME280_humidity;BME280_pressure;Samples;Min_cycle;Max_cycle;Signal;HPM_P1;HPM_P2
2021/11/24 00:01:23;;;;;;;6.95;6.20;;;8.60;82.90;;;;;;5089311;28;20028;-70
2021/11/24 00:03:49;;;;;;;8.55;6.38;;;8.50;82.70;;;;;;5090090;28;20031;-70
2021/11/24 00:06:14;;;;;;;8.82;7.15;;;8.50;82.40;;;;;;5071652;28;20520;-70
2021/11/24 00:08:40;;;;;;;10.95;6.85;;;8.50;82.40;;;;;;5089782;28;20121;-73
2021/11/24 00:11:06;;;;;;;9.15;5.88;;;8.40;82.40;;;;;;5088893;28;20035;-73
2021/11/24 00:13:31;;;;;;;8.40;6.38;;;8.40;82.30;;;;;;5070972;28;20111;-70
2021/11/24 00:15:57;;;;;;;9.57;6.30;;;8.40;82.30;;;;;;5087791;28;20487;-71
2021/11/24 00:18:23;;;;;;;7.88;5.68;;;8.30;82.30;;;;;;5070622;28;20039;-73
2021/11/24 00:20:49;;;;;;;9.13;5.18;;;8.30;82.80;;;;;;5089952;28;20395;-70
2021/11/24 00:23:14;;;;;;;6.15;5.30;;;8.30;82.20;;;;;;5089891;28;20038;-70
2021/11/24 00:25:41;;;;;;;5.68;5.05;;;8.30;82.30;;;;;;5070674;28;20062;-70
2021/11/24 00:28:07;;;;;;;6.18;5.15;;;8.30;82.20;;;;;;5089487;28;20040;-70
2021/11/24 00:30:33;;;;;;;6.20;4.90;;;8.20;82.10;;;;;;5089428;28;20042;-69
2021/11/24 00:32:59;;;;;;;6.90;4.90;;;8.20;82.10;;;;;;5086032;28;20058;-69
2021/11/24 00:35:24;;;;;;;6.95;5.20;;;8.20;82.10;;;;;;5088815;28;20032;-69
2021/11/24 00:37:50;;;;;;;5.30;4.40;;;8.20;82.10;;;;;;5089994;28;20058;-69
2021/11/24 00:40:16;;;;;;;7.95;4.68;;;8.20;82.00;;;;;;5091765;28;20063;-69
2021/11/24 00:42:41;;;;;;;5.53;4.22;;;8.10;82.00;;;;;;5092212;28;20032;-70
2021/11/24 00:45:08;;;;;;;7.38;4.57;;;8.10;82.10;;;;;;5092540;28;20036;-70
2021/11/24 00:47:33;;;;;;;7.00;4.60;;;8.10;82.20;;;;;;5075178;28;20028;-73
2021/11/24 00:49:59;;;;;;;7.75;4.72;;;8.10;82.40;;;;;;5090212;28;20058;-73
2021/11/24 00:52:28;;;;;;;7.53;4.68;;;8.10;82.60;;;;;;5081056;28;20024;-73
2021/11/24 00:54:54;;;;;;;8.45;4.40;;;8.10;82.80;;;;;;5074669;28;20020;-73
2021/11/24 00:57:20;;;;;;;6.65;5.20;;;8.10;82.90;;;;;;5092954;28;20028;-74
2021/11/24 00:59:46;;;;;;;6.70;5.28;;;8.10;83.20;;;;;;5092448;28;20110;-72
2021/11/24 01:02:11;;;;;;;6.63;5.93;;;8.10;83.50;;;;;;5092254;28;20043;-72
2021/11/24 01:04:37;;;;;;;6.75;5.35;;;8.10;83.80;;;;;;5092822;28;20654;-73
2021/11/24 01:07:03;;;;;;;8.95;5.57;;;8.10;84.00;;;;;;5071799;28;20033;-73
2021/11/24 01:09:29;;;;;;;7.45;5.68;;;8.10;84.00;;;;;;5072667;28;20374;-73
2021/11/24 01:11:55;;;;;;;7.07;5.95;;;8.10;84.20;;;;;;5062012;28;20028;-73
2021/11/24 01:14:21;;;;;;;7.75;5.82;;;8.10;84.30;;;;;;5092821;28;20020;-73
2021/11/24 01:16:46;;;;;;;6.15;5.55;;;8.10;84.30;;;;;;5093063;28;20028;-70
2021/11/24 01:19:12;;;;;;;10.65;5.57;;;8.10;84.30;;;;;;5092899;28;20032;-70
2021/11/24 01:21:38;;;;;;;9.23;5.82;;;8.10;84.30;;;;;;5092343;28;20486;-69
2021/11/24 01:24:04;;;;;;;14.80;6.05;;;8.10;84.20;;;;;;5089695;28;20395;-72
2021/11/24 01:26:30;;;;;;;14.93;5.70;;;8.10;84.20;;;;;;5072083;28;20029;-72
2021/11/24 01:28:56;;;;;;;11.57;5.95;;;8.10;84.10;;;;;;5072188;28;20036;-69
2021/11/24 01:31:21;;;;;;;14.25;5.75;;;8.10;83.90;;;;;;5072148;28;20364;-72
2021/11/24 01:33:47;;;;;;;25.63;5.82;;;8.10;83.80;;;;;;5072709;28;20081;-72
2021/11/24 01:36:13;;;;;;;8.88;5.65;;;8.10;83.80;;;;;;5089895;28;20035;-69
2021/11/24 01:38:39;;;;;;;10.02;6.22;;;8.00;83.60;;;;;;5091821;28;20103;-70
2021/11/24 01:41:04;;;;;;;13.32;5.63;;;8.00;83.50;;;;;;5088029;28;20060;-70
2021/11/24 01:43:30;;;;;;;9.38;5.75;;;8.00;83.50;;;;;;5072318;28;20036;-70
2021/11/24 01:45:56;;;;;;;12.73;5.88;;;8.00;83.50;;;;;;5071880;28;20060;-73
2021/11/24 01:48:28;;;;;;;25.42;6.57;;;8.00;83.60;;;;;;5066712;28;20048;-70
2021/11/24 01:50:54;;;;;;;26.92;6.05;;;7.90;83.60;;;;;;5090910;28;20035;-70
2021/11/24 01:53:20;;;;;;;39.95;6.65;;;8.00;83.60;;;;;;5092339;28;20024;-73
2021/11/24 01:55:46;;;;;;;9.82;5.47;;;7.90;83.50;;;;;;5073149;28;20024;-73
2021/11/24 01:58:13;;;;;;;6.57;5.57;;;7.90;83.40;;;;;;5090313;28;20486;-73
2021/11/24 02:00:39;;;;;;;5.30;4.80;;;7.90;83.40;;;;;;5071220;28;20040;-73
2021/11/24 02:03:05;;;;;;;5.40;4.90;;;7.90;83.40;;;;;;5090874;28;20036;-70
2021/11/24 02:05:33;;;;;;;5.30;4.80;;;7.90;83.40;;;;;;5090404;28;20398;-71
2021/11/24 02:07:58;;;;;;;4.93;4.47;;;7.90;83.40;;;;;;5091510;28;20035;-73
2021/11/24 02:10:25;;;;;;;4.90;4.18;;;7.80;83.20;;;;;;5090825;28;20040;-73
2021/11/24 02:12:51;;;;;;;5.68;4.97;;;7.80;83.10;;;;;;5090689;28;20366;-73
2021/11/24 02:15:17;;;;;;;6.97;5.13;;;7.80;83.10;;;;;;5090978;28;20032;-73
2021/11/24 02:17:44;;;;;;;6.38;5.05;;;7.80;83.00;;;;;;5091038;28;20032;-73
2021/11/24 02:20:15;;;;;;;7.03;4.70;;;7.80;83.00;;;;;;5073079;28;20043;-70
2021/11/24 02:22:41;;;;;;;5.20;4.70;;;7.70;83.00;;;;;;5090814;28;20024;-70
2021/11/24 02:25:07;;;;;;;5.97;4.88;;;7.70;82.90;;;;;;5072771;28;20677;-70
2021/11/24 02:27:33;;;;;;;6.20;5.10;;;7.70;83.10;;;;;;5072737;28;20027;-73
2021/11/24 02:29:59;;;;;;;6.57;5.70;;;7.70;82.80;;;;;;5091123;28;20040;-73
2021/11/24 02:32:24;;;;;;;5.13;4.63;;;7.60;82.70;;;;;;5083820;28;20032;-73
2021/11/24 02:34:50;;;;;;;6.05;4.90;;;7.60;82.70;;;;;;5086146;28;20036;-73
2021/11/24 02:37:16;;;;;;;6.85;4.97;;;7.60;82.70;;;;;;5091240;28;20105;-73
2021/11/24 02:39:41;;;;;;;5.45;4.30;;;7.60;82.60;;;;;;5072231;28;20434;-73
2021/11/24 02:42:07;;;;;;;5.40;4.90;;;7.50;82.60;;;;;;5055140;28;20372;-73
2021/11/24 02:44:39;;;;;;;6.35;4.75;;;7.50;82.60;;;;;;5087107;28;20044;-73
2021/11/24 02:47:15;;;;;;;6.20;5.25;;;7.50;82.60;;;;;;5084845;28;20043;-73
2021/11/24 02:49:43;;;;;;;6.60;5.05;;;7.50;82.60;;;;;;5076798;28;20044;-72
2021/11/24 02:52:10;;;;;;;4.97;4.47;;;7.50;82.60;;;;;;5098007;28;20028;-73
2021/11/24 02:54:36;;;;;;;6.10;5.32;;;7.40;82.60;;;;;;5090297;28;20474;-70
2021/11/24 02:57:06;;;;;;;5.75;4.80;;;7.40;82.50;;;;;;5089915;28;20028;-73
2021/11/24 02:59:33;;;;;;;5.68;4.80;;;7.40;82.50;;;;;;5091181;28;20430;-73
2021/11/24 03:01:58;;;;;;;4.82;4.43;;;7.40;82.30;;;;;;5072026;28;20034;-73
2021/11/24 03:04:29;;;;;;;5.15;4.57;;;7.40;82.20;;;;;;5072684;28;20795;-73
2021/11/24 03:06:57;;;;;;;4.45;3.92;;;7.40;82.20;;;;;;5079673;28;20032;-70
2021/11/24 03:09:23;;;;;;;4.82;4.30;;;7.30;82.20;;;;;;5079732;28;20039;-70
2021/11/24 03:11:49;;;;;;;5.53;5.03;;;7.30;82.10;;;;;;5071642;28;20024;-72
2021/11/24 03:14:14;;;;;;;4.07;3.72;;;7.30;82.10;;;;;;5090206;28;20028;-73
2021/11/24 03:16:40;;;;;;;4.55;4.13;;;7.30;82.10;;;;;;5089791;28;20024;-70
2021/11/24 03:19:05;;;;;;;3.95;3.65;;;7.30;82.00;;;;;;5089726;28;20148;-70
2021/11/24 03:21:31;;;;;;;5.00;3.65;;;7.30;82.00;;;;;;5089384;28;20485;-70
2021/11/24 03:23:57;;;;;;;3.65;3.35;;;7.30;81.90;;;;;;5087782;28;20431;-70
2021/11/24 03:26:22;;;;;;;3.78;3.47;;;7.30;82.00;;;;;;5089488;28;20029;-70
2021/11/24 03:28:48;;;;;;;4.20;3.65;;;7.30;82.00;;;;;;5090112;28;20044;-70
2021/11/24 03:31:14;;;;;;;3.38;3.08;;;7.30;82.60;;;;;;5089913;28;20024;-70
2021/11/24 03:33:40;;;;;;;3.70;3.35;;;7.30;82.10;;;;;;5089716;28;20032;-70
2021/11/24 03:36:05;;;;;;;4.53;3.80;;;7.20;82.00;;;;;;5071935;28;20032;-71
2021/11/24 03:38:31;;;;;;;4.40;3.58;;;7.20;82.10;;;;;;5089348;28;20032;-68
2021/11/24 03:40:57;;;;;;;4.25;3.85;;;7.20;82.20;;;;;;5082587;28;20153;-72
2021/11/24 03:43:22;;;;;;;4.18;3.78;;;7.20;82.20;;;;;;5071614;28;20077;-72
2021/11/24 03:45:48;;;;;;;3.55;3.25;;;7.20;82.10;;;;;;5090033;28;20046;-69
2021/11/24 03:48:15;;;;;;;4.13;3.53;;;7.20;82.00;;;;;;5087758;28;20122;-71
2021/11/24 03:50:41;;;;;;;3.75;3.40;;;7.20;82.10;;;;;;5087272;28;20178;-71
2021/11/24 03:53:07;;;;;;;3.65;3.20;;;7.20;82.10;;;;;;5088936;28;20514;-68
2021/11/24 03:55:32;;;;;;;4.30;3.60;;;7.10;82.20;;;;;;5088478;28;20114;-68
2021/11/24 03:57:59;;;;;;;3.55;3.25;;;7.20;82.30;;;;;;5082988;28;20111;-69
2021/11/24 04:00:27;;;;;;;3.00;2.80;;;7.20;82.30;;;;;;5068305;28;20555;-69
2021/11/24 04:02:53;;;;;;;4.57;3.35;;;7.20;82.20;;;;;;5071147;28;20062;-71
2021/11/24 04:05:19;;;;;;;3.15;2.78;;;7.20;82.20;;;;;;5089076;28;20028;-71
2021/11/24 04:07:45;;;;;;;3.10;2.90;;;7.20;82.20;;;;;;5071366;28;20494;-68
2021/11/24 04:10:12;;;;;;;4.63;3.20;;;7.10;82.30;;;;;;5089190;28;20085;-71
2021/11/24 04:12:41;;;;;;;4.70;3.17;;;7.10;82.50;;;;;;5070374;28;20111;-68
2021/11/24 04:15:12;;;;;;;3.45;3.00;;;7.10;82.70;;;;;;5082966;28;20036;-69
2021/11/24 04:17:39;;;;;;;4.50;2.78;;;7.10;82.90;;;;;;5089639;28;20032;-69
2021/11/24 04:20:07;;;;;;;4.30;3.00;;;7.20;83.00;;;;;;5089559;28;20051;-69
2021/11/24 04:22:33;;;;;;;2.78;2.53;;;7.10;83.00;;;;;;5071299;28;20463;-69
2021/11/24 04:24:59;;;;;;;4.20;2.83;;;7.10;83.10;;;;;;5088915;28;20028;-71
2021/11/24 04:27:25;;;;;;;3.67;2.50;;;7.20;83.30;;;;;;5089122;28;20039;-69
2021/11/24 04:29:51;;;;;;;2.78;2.50;;;7.20;83.40;;;;;;5089143;28;20040;-68
2021/11/24 04:32:17;;;;;;;3.20;2.65;;;7.20;83.50;;;;;;5089007;28;20024;-72
2021/11/24 04:34:44;;;;;;;6.97;2.85;;;7.10;83.40;;;;;;5039161;28;20033;-68
2021/11/24 04:37:10;;;;;;;4.22;2.72;;;7.10;83.40;;;;;;5070714;28;20032;-69
2021/11/24 04:39:36;;;;;;;3.10;2.60;;;7.10;83.40;;;;;;5088872;28;20503;-71
2021/11/24 04:42:02;;;;;;;3.42;2.67;;;7.10;83.30;;;;;;5089473;28;20043;-69
2021/11/24 04:44:28;;;;;;;5.03;2.80;;;7.10;83.30;;;;;;5089049;28;20036;-69
2021/11/24 04:46:54;;;;;;;5.32;3.13;;;7.10;83.20;;;;;;5089125;28;20036;-72
2021/11/24 04:49:20;;;;;;;5.85;3.00;;;7.00;83.20;;;;;;5076613;28;20040;-70
2021/11/24 04:51:46;;;;;;;3.60;2.60;;;7.00;83.20;;;;;;5089016;28;20449;-69
2021/11/24 04:54:12;;;;;;;3.65;2.50;;;7.00;83.20;;;;;;5088644;28;20062;-72
2021/11/24 04:56:38;;;;;;;8.23;3.38;;;7.00;83.20;;;;;;5088481;28;20418;-72
2021/11/24 04:59:03;;;;;;;5.00;3.10;;;7.00;83.40;;;;;;5088683;28;20032;-72
2021/11/24 05:01:30;;;;;;;4.57;2.90;;;7.00;83.60;;;;;;5088961;28;20047;-72
2021/11/24 05:03:56;;;;;;;5.05;3.10;;;7.10;83.70;;;;;;5089057;28;20035;-72
2021/11/24 05:06:22;;;;;;;7.90;3.60;;;7.10;83.80;;;;;;5060038;28;20123;-72
2021/11/24 05:08:50;;;;;;;6.03;3.03;;;7.10;83.90;;;;;;5088677;28;20047;-72
2021/11/24 05:11:19;;;;;;;10.10;3.83;;;7.10;83.90;;;;;;5070025;28;20065;-72
2021/11/24 05:13:57;;;;;;;8.32;3.60;;;7.10;84.00;;;;;;5089164;28;20161;-72
2021/11/24 05:16:26;;;;;;;36.45;5.13;;;7.10;84.10;;;;;;5086901;28;20028;-72
2021/11/24 05:18:53;;;;;;;20.17;5.00;;;7.10;84.20;;;;;;5071685;28;20032;-72
2021/11/24 05:23:52;;;;;;;35.10;5.50;;;7.10;84.40;;;;;;5097904;28;20044;-72
2021/11/24 05:26:18;;;;;;;24.90;5.80;;;7.10;84.40;;;;;;5091312;28;20135;-72
2021/11/24 05:28:46;;;;;;;44.95;5.47;;;7.10;84.60;;;;;;5102716;28;20024;-72
2021/11/24 05:31:12;;;;;;;49.38;5.78;;;7.10;84.70;;;;;;5091194;28;20148;-72
2021/11/24 05:33:38;;;;;;;81.05;6.35;;;7.20;84.80;;;;;;5056706;28;20484;-69
2021/11/24 05:36:05;;;;;;;94.55;6.28;;;7.20;84.90;;;;;;5101890;28;20019;-70
2021/11/24 05:38:31;;;;;;;56.00;5.90;;;7.10;85.00;;;;;;5093577;28;20032;-69
2021/11/24 05:40:56;;;;;;;24.15;5.30;;;7.20;85.10;;;;;;5089699;28;20467;-72
2021/11/24 05:43:26;;;;;;;14.65;5.43;;;7.10;85.20;;;;;;5092265;28;20403;-71
2021/11/24 05:48:19;;;;;;;17.40;4.93;;;7.20;85.40;;;;;;5092542;28;20178;-71
2021/11/24 05:50:47;;;;;;;24.67;5.35;;;7.20;85.30;;;;;;5091035;28;20542;-72
2021/11/24 05:53:16;;;;;;;11.60;5.53;;;7.20;85.30;;;;;;5092210;28;20036;-72
2021/11/24 05:55:42;;;;;;;16.77;6.35;;;7.20;85.30;;;;;;5090695;28;20035;-69
2021/11/24 05:58:08;;;;;;;14.52;5.97;;;7.20;85.40;;;;;;5084609;28;20084;-69
2021/11/24 06:00:34;;;;;;;13.88;6.05;;;7.20;85.30;;;;;;5088379;28;20031;-69
2021/11/24 06:03:00;;;;;;;12.57;6.70;;;7.20;85.40;;;;;;5091721;28;20032;-71
2021/11/24 06:05:26;;;;;;;11.32;6.32;;;7.20;85.40;;;;;;5092135;28;20035;-72
2021/11/24 06:07:51;;;;;;;8.07;6.68;;;7.20;85.50;;;;;;5092109;28;20390;-69
2021/11/24 06:10:17;;;;;;;13.40;6.25;;;7.20;85.50;;;;;;5052662;28;20056;-69
2021/11/24 06:12:43;;;;;;;10.05;5.68;;;7.20;85.50;;;;;;5091076;28;20102;-69
2021/11/24 06:15:10;;;;;;;12.13;5.80;;;7.30;85.60;;;;;;5060475;28;20049;-69
2021/11/24 06:17:36;;;;;;;9.30;6.50;;;7.20;85.50;;;;;;5091004;28;20146;-69
2021/11/24 06:20:02;;;;;;;8.52;5.72;;;7.30;85.60;;;;;;5090777;28;20020;-69
2021/11/24 06:22:28;;;;;;;7.63;5.75;;;7.30;85.70;;;;;;5072552;28;20056;-69
2021/11/24 06:24:54;;;;;;;17.95;5.90;;;7.30;85.80;;;;;;5090636;28;20439;-68
2021/11/24 06:27:19;;;;;;;26.27;6.20;;;7.30;85.80;;;;;;5090915;28;20560;-69
2021/11/24 06:29:45;;;;;;;39.88;6.22;;;7.30;85.80;;;;;;5071247;28;20068;-69
2021/11/24 06:32:11;;;;;;;42.42;6.68;;;7.30;85.80;;;;;;5087440;28;20063;-69
2021/11/24 06:34:36;;;;;;;42.78;6.00;;;7.30;85.80;;;;;;5090704;28;20085;-69
2021/11/24 06:37:02;;;;;;;41.15;6.05;;;7.30;85.90;;;;;;5090299;28;20043;-69
2021/11/24 06:39:28;;;;;;;49.33;6.30;;;7.40;85.90;;;;;;5072217;28;20071;-69
2021/11/24 06:41:54;;;;;;;43.00;6.60;;;7.40;86.00;;;;;;5089710;28;20020;-69
2021/11/24 06:44:24;;;;;;;61.50;6.88;;;7.40;86.00;;;;;;5072521;28;20016;-69
2021/11/24 06:46:50;;;;;;;29.73;6.15;;;7.40;86.60;;;;;;5088377;28;20340;-69
2021/11/24 06:49:16;;;;;;;24.80;6.00;;;7.40;86.10;;;;;;5089146;28;20073;-68
2021/11/24 06:51:42;;;;;;;9.73;5.78;;;7.40;86.10;;;;;;5054111;28;20024;-68
2021/11/24 06:54:08;;;;;;;10.32;6.32;;;7.40;86.10;;;;;;5096271;28;20513;-72
2021/11/24 06:56:34;;;;;;;8.45;5.75;;;7.40;86.20;;;;;;5068661;28;20028;-73
2021/11/24 06:58:59;;;;;;;7.93;5.38;;;7.40;86.20;;;;;;5088715;28;20075;-73
2021/11/24 07:01:25;;;;;;;11.48;5.38;;;7.40;86.20;;;;;;5086233;28;20163;-72
2021/11/24 07:03:50;;;;;;;12.73;5.28;;;7.40;86.20;;;;;;5086400;28;20039;-73
2021/11/24 07:06:16;;;;;;;11.00;5.75;;;7.40;86.20;;;;;;5086629;28;20028;-72
2021/11/24 07:08:42;;;;;;;17.58;6.00;;;7.40;86.20;;;;;;5087985;28;20034;-73
2021/11/24 07:11:08;;;;;;;10.52;5.65;;;7.40;86.20;;;;;;5087703;28;20509;-72
2021/11/24 07:13:34;;;;;;;8.35;5.20;;;7.40;86.20;;;;;;5093850;28;20052;-73
2021/11/24 07:15:59;;;;;;;7.88;4.70;;;7.50;86.30;;;;;;5072641;28;20107;-73
2021/11/24 07:18:25;;;;;;;8.68;5.35;;;7.40;86.30;;;;;;5088644;28;20061;-73
2021/11/24 07:20:51;;;;;;;11.07;4.43;;;7.50;86.30;;;;;;5086038;28;20587;-72
2021/11/24 07:23:17;;;;;;;10.27;5.47;;;7.50;86.30;;;;;;5081115;28;20036;-73
2021/11/24 07:25:42;;;;;;;9.10;5.28;;;7.50;86.30;;;;;;5082142;28;20356;-73
2021/11/24 07:28:08;;;;;;;11.35;5.60;;;7.50;86.20;;;;;;5088454;28;20020;-73
2021/11/24 07:30:34;;;;;;;9.38;5.25;;;7.50;86.30;;;;;;5086756;28;20119;-73
2021/11/24 07:32:59;;;;;;;9.65;5.57;;;7.50;86.40;;;;;;5089414;28;20487;-73
2021/11/24 07:35:25;;;;;;;9.52;5.45;;;7.50;86.40;;;;;;5088712;28;20445;-73
2021/11/24 07:37:51;;;;;;;9.57;5.53;;;7.50;86.50;;;;;;5070682;28;20028;-73
2021/11/24 07:40:18;;;;;;;8.63;5.28;;;7.50;86.50;;;;;;5052531;28;20143;-74
2021/11/24 07:42:44;;;;;;;9.55;5.82;;;7.60;86.70;;;;;;5071815;28;20115;-73
2021/11/24 07:45:10;;;;;;;9.80;5.32;;;7.50;86.80;;;;;;5088903;28;20123;-73
2021/11/24 07:47:36;;;;;;;9.00;5.10;;;7.60;86.90;;;;;;5064484;28;20054;-69
2021/11/24 07:50:03;;;;;;;10.90;5.78;;;7.60;87.00;;;;;;5086836;28;20066;-69
2021/11/24 07:52:28;;;;;;;9.10;5.50;;;7.60;87.00;;;;;;5087953;28;20035;-69
2021/11/24 07:54:54;;;;;;;7.28;4.60;;;7.60;87.00;;;;;;5091513;28;20977;-73
2021/11/24 07:57:20;;;;;;;8.20;5.63;;;7.60;87.00;;;;;;5065140;28;20035;-73
2021/11/24 07:59:47;;;;;;;10.95;5.30;;;7.60;87.70;;;;;;5071409;28;20119;-69
2021/11/24 08:02:13;;;;;;;8.48;4.80;;;7.70;87.20;;;;;;5088016;28;20040;-69
2021/11/24 08:04:39;;;;;;;8.85;5.00;;;7.70;87.30;;;;;;5084670;28;20039;-69
2021/11/24 08:07:04;;;;;;;6.65;4.22;;;7.70;87.30;;;;;;5086963;28;20107;-69
2021/11/24 08:09:31;;;;;;;6.85;4.50;;;7.70;87.30;;;;;;5088953;28;20089;-69
2021/11/24 08:11:58;;;;;;;7.85;4.63;;;7.70;87.40;;;;;;5067725;28;20135;-69
2021/11/24 08:14:25;;;;;;;6.70;4.68;;;7.80;87.50;;;;;;5084043;28;20048;-69
2021/11/24 08:16:51;;;;;;;9.00;4.93;;;7.70;87.50;;;;;;5088748;28;20387;-70
2021/11/24 08:19:16;;;;;;;8.73;5.10;;;7.80;87.60;;;;;;5070982;28;20033;-70
2021/11/24 08:21:42;;;;;;;8.35;5.00;;;7.80;87.60;;;;;;5050749;28;20394;-74
2021/11/24 08:24:08;;;;;;;7.75;5.05;;;7.80;87.70;;;;;;5088316;28;20542;-74
2021/11/24 08:26:34;;;;;;;11.75;5.57;;;7.80;87.60;;;;;;5071391;28;20111;-70
2021/11/24 08:28:59;;;;;;;8.02;5.28;;;7.80;87.80;;;;;;5087024;28;20417;-74
2021/11/24 08:31:25;;;;;;;9.02;5.28;;;7.80;88.00;;;;;;5081230;28;20032;-74
2021/11/24 08:33:51;;;;;;;9.43;5.78;;;7.90;88.10;;;;;;5071967;28;20028;-74
2021/11/24 08:36:17;;;;;;;9.13;6.03;;;7.90;88.10;;;;;;5089465;28;20417;-74
2021/11/24 08:38:43;;;;;;;12.07;7.38;;;7.90;88.10;;;;;;5071283;28;20028;-71
2021/11/24 08:41:12;;;;;;;12.57;7.20;;;7.90;88.10;;;;;;5087726;28;20139;-70
2021/11/24 08:43:39;;;;;;;14.23;7.82;;;8.00;88.30;;;;;;5089392;28;20028;-70
2021/11/24 08:46:05;;;;;;;12.30;8.43;;;8.00;88.30;;;;;;5087645;28;20028;-71
2021/11/24 08:48:31;;;;;;;16.00;9.20;;;8.00;88.40;;;;;;5071294;28;20605;-73
2021/11/24 08:50:58;;;;;;;20.70;10.38;;;8.00;88.50;;;;;;5070257;28;20075;-71
2021/11/24 08:53:23;;;;;;;21.58;10.98;;;8.10;88.60;;;;;;5075532;28;20028;-70
2021/11/24 08:55:50;;;;;;;21.30;11.25;;;8.10;88.60;;;;;;5079550;28;20039;-70
2021/11/24 08:58:16;;;;;;;19.13;10.65;;;8.20;88.60;;;;;;5092357;28;20740;-70
2021/11/24 09:00:42;;;;;;;14.95;9.98;;;8.30;88.60;;;;;;5074000;28;20031;-70
2021/11/24 09:03:10;;;;;;;18.85;10.65;;;8.30;88.60;;;;;;5088743;28;20025;-71
2021/11/24 09:05:36;;;;;;;17.73;10.80;;;8.30;88.70;;;;;;5075083;28;20450;-71
2021/11/24 09:08:03;;;;;;;17.90;9.93;;;8.30;88.70;;;;;;5093266;28;20115;-74
2021/11/24 09:10:30;;;;;;;18.90;10.80;;;8.40;88.70;;;;;;5092009;28;20040;-73
2021/11/24 09:13:00;;;;;;;17.45;10.00;;;8.40;88.70;;;;;;5092816;28;20111;-74
2021/11/24 09:15:26;;;;;;;16.77;10.13;;;8.40;88.70;;;;;;5090301;28;20483;-74
2021/11/24 09:17:53;;;;;;;16.10;9.15;;;8.40;88.80;;;;;;5090870;28;20024;-74
2021/11/24 09:20:20;;;;;;;14.52;8.90;;;8.50;88.90;;;;;;5089775;28;20075;-74
2021/11/24 09:22:48;;;;;;;13.68;9.07;;;8.50;88.90;;;;;;5092376;28;20032;-74
2021/11/24 09:25:18;;;;;;;20.92;8.85;;;8.60;88.90;;;;;;5092393;28;20131;-74
2021/11/24 09:28:05;;;;;;;12.95;8.98;;;8.70;88.90;;;;;;5091865;28;20024;-73
2021/11/24 09:30:31;;;;;;;13.52;8.50;;;8.70;88.70;;;;;;5091281;28;20040;-70
2021/11/24 09:32:57;;;;;;;14.38;8.93;;;8.60;88.50;;;;;;5095563;28;20502;-70
2021/11/24 09:35:23;;;;;;;14.35;8.60;;;8.60;88.40;;;;;;5073402;28;20131;-71
2021/11/24 09:37:48;;;;;;;14.95;9.27;;;8.60;88.50;;;;;;5091272;28;20035;-70
2021/11/24 09:40:15;;;;;;;13.52;9.65;;;8.50;88.60;;;;;;5090400;28;20028;-70
2021/11/24 09:42:43;;;;;;;12.25;8.93;;;8.50;88.70;;;;;;5092580;28;20031;-71
2021/11/24 09:45:10;;;;;;;15.80;10.43;;;8.60;88.70;;;;;;5091769;28;20020;-71
2021/11/24 09:47:36;;;;;;;14.02;10.45;;;8.60;88.80;;;;;;5090961;28;20044;-70
2021/11/24 09:50:05;;;;;;;16.55;10.85;;;8.60;88.80;;;;;;5093256;28;20024;-71
2021/11/24 09:52:34;;;;;;;13.30;10.45;;;8.60;88.80;;;;;;5090393;28;20466;-71
2021/11/24 09:55:00;;;;;;;13.77;10.30;;;8.70;88.80;;;;;;5077158;28;20422;-71
2021/11/24 09:57:27;;;;;;;13.82;10.77;;;8.70;88.80;;;;;;5091380;28;20028;-70
2021/11/24 09:59:53;;;;;;;15.77;11.00;;;8.70;88.60;;;;;;5090959;28;20051;-70
2021/11/24 10:02:20;;;;;;;13.98;10.80;;;8.80;88.50;;;;;;5087557;28;20051;-71
2021/11/24 10:04:48;;;;;;;14.88;11.32;;;8.80;88.30;;;;;;5089476;28;20043;-71
2021/11/24 10:07:16;;;;;;;13.45;11.20;;;8.80;88.00;;;;;;5101111;28;20035;-70
2021/11/24 10:09:42;;;;;;;13.40;11.38;;;8.80;87.80;;;;;;5085380;28;20436;-70
2021/11/24 10:12:10;;;;;;;13.45;11.00;;;8.80;87.80;;;;;;5100493;27;20033;-71
2021/11/24 10:14:37;;;;;;;13.77;11.43;;;8.80;87.80;;;;;;5089936;28;20151;-70
2021/11/24 10:17:08;;;;;;;13.13;9.73;;;8.80;87.70;;;;;;5089839;28;20351;-73
2021/11/24 10:19:34;;;;;;;13.25;10.98;;;8.70;87.60;;;;;;5087352;28;20032;-74
2021/11/24 10:22:14;;;;;;;13.10;10.90;;;8.70;87.50;;;;;;5092360;28;20039;-73
2021/11/24 10:24:43;;;;;;;12.82;10.52;;;8.70;87.60;;;;;;5090730;28;20024;-74
2021/11/24 10:27:12;;;;;;;16.35;12.60;;;8.70;87.70;;;;;;5090610;28;20092;-73
2021/11/24 10:29:40;;;;;;;14.13;11.57;;;8.70;87.40;;;;;;5089088;28;20028;-74
2021/11/24 10:32:10;;;;;;;23.98;17.70;;;8.70;87.50;;;;;;5091075;28;20020;-74
2021/11/24 10:34:39;;;;;;;23.83;17.48;;;8.70;87.50;;;;;;5073072;28;20032;-74
2021/11/24 10:37:16;;;;;;;24.90;16.58;;;8.80;87.40;;;;;;5091342;28;20031;-75
2021/11/24 10:39:54;;;;;;;18.02;13.05;;;8.90;87.60;;;;;;5089010;28;20027;-74
2021/11/24 10:42:34;;;;;;;15.55;11.27;;;9.00;87.20;;;;;;5073437;28;20020;-74
2021/11/24 10:45:13;;;;;;;12.00;7.38;;;9.20;86.90;;;;;;5085043;28;20070;-73
2021/11/24 10:47:57;;;;;;;12.25;8.13;;;9.30;86.30;;;;;;5069864;28;20067;-71
2021/11/24 10:50:25;;;;;;;11.95;7.18;;;9.40;85.90;;;;;;5080448;28;20134;-70
2021/11/24 10:52:51;;;;;;;8.32;5.85;;;9.50;85.70;;;;;;5091372;28;20482;-71
2021/11/24 10:55:26;;;;;;;5.82;3.90;;;9.50;85.10;;;;;;5068065;28;20026;-70
2021/11/24 10:57:59;;;;;;;4.05;2.50;;;9.50;84.20;;;;;;5086554;28;20463;-73
2021/11/24 11:00:32;;;;;;;2.25;1.80;;;9.50;83.80;;;;;;5086733;28;20039;-74
2021/11/24 11:02:58;;;;;;;1.58;1.40;;;9.50;83.00;;;;;;5065578;28;20115;-69
2021/11/24 11:05:25;;;;;;;2.40;1.70;;;9.50;81.70;;;;;;5088185;28;20118;-70
2021/11/24 11:07:51;;;;;;;3.72;2.70;;;9.50;81.80;;;;;;5086291;28;20382;-73
2021/11/24 11:10:25;;;;;;;7.40;3.72;;;9.50;82.50;;;;;;5086025;28;20038;-70
2021/11/24 11:13:00;;;;;;;6.97;4.25;;;9.70;83.00;;;;;;5089423;28;20494;-70
2021/11/24 11:15:32;;;;;;;6.75;4.45;;;9.90;82.90;;;;;;5083287;28;20051;-70
2021/11/24 11:18:02;;;;;;;8.23;4.57;;;9.90;82.60;;;;;;5088908;28;20130;-70
2021/11/24 11:20:49;;;;;;;7.55;4.63;;;9.80;82.80;;;;;;5068486;28;20054;-70
2021/11/24 11:23:17;;;;;;;6.72;4.60;;;9.80;82.90;;;;;;5082583;28;20086;-70
2021/11/24 11:25:53;;;;;;;5.60;4.35;;;9.80;83.20;;;;;;5088567;28;20060;-70
2021/11/24 11:28:21;;;;;;;7.78;4.75;;;9.80;83.30;;;;;;5087307;28;20111;-70
2021/11/24 11:30:48;;;;;;;9.27;4.47;;;9.80;83.20;;;;;;5064959;28;20063;-71
2021/11/24 11:33:16;;;;;;;8.05;3.70;;;9.70;82.90;;;;;;5089189;28;20024;-70
2021/11/24 11:35:44;;;;;;;9.35;3.90;;;9.70;83.10;;;;;;5088540;28;20024;-70
2021/11/24 11:38:10;;;;;;;8.73;4.18;;;9.60;83.50;;;;;;5068293;28;20039;-70
2021/11/24 11:40:38;;;;;;;12.38;4.03;;;9.60;82.80;;;;;;5088660;28;20522;-70
2021/11/24 11:43:07;;;;;;;7.55;3.70;;;9.60;83.00;;;;;;5085044;28;20059;-70
2021/11/24 11:45:34;;;;;;;5.10;2.88;;;9.60;82.90;;;;;;5088559;28;20511;-70
2021/11/24 11:48:04;;;;;;;5.03;2.75;;;9.60;82.60;;;;;;5088438;28;20056;-70
2021/11/24 11:50:38;;;;;;;4.50;3.00;;;9.60;82.70;;;;;;5074075;28;20047;-70
2021/11/24 11:53:10;;;;;;;2.67;2.45;;;9.60;82.90;;;;;;5079803;28;20044;-71
2021/11/24 11:55:36;;;;;;;3.58;2.53;;;9.50;82.90;;;;;;5068066;28;20031;-72
2021/11/24 11:58:02;;;;;;;4.60;2.70;;;9.50;82.40;;;;;;5087857;28;20032;-72
2021/11/24 12:00:31;;;;;;;5.50;2.30;;;9.50;82.60;;;;;;5066287;28;20071;-72
2021/11/24 12:02:58;;;;;;;3.42;2.20;;;9.50;82.80;;;;;;5085511;28;20024;-72
2021/11/24 12:05:24;;;;;;;3.03;2.40;;;9.50;83.10;;;;;;5088286;28;20032;-72
2021/11/24 12:08:10;;;;;;;4.28;2.30;;;9.50;83.20;;;;;;5060256;28;20036;-72
2021/11/24 12:10:54;;;;;;;4.50;2.50;;;9.60;83.00;;;;;;5085043;28;20522;-72
2021/11/24 12:13:32;;;;;;;4.97;2.53;;;9.60;83.00;;;;;;5086502;28;20438;-72
2021/11/24 12:15:58;;;;;;;4.45;2.42;;;9.60;82.90;;;;;;5081419;28;20186;-71
2021/11/24 12:18:24;;;;;;;4.43;3.10;;;9.60;83.10;;;;;;5076424;28;20008;-71
2021/11/24 12:20:53;;;;;;;4.55;2.80;;;9.60;83.20;;;;;;5070301;28;20047;-71
2021/11/24 12:23:22;;;;;;;4.53;2.75;;;9.60;83.00;;;;;;5070541;28;20036;-71
2021/11/24 12:25:48;;;;;;;5.05;3.38;;;9.60;83.00;;;;;;5088284;28;20040;-71
2021/11/24 12:28:16;;;;;;;5.82;4.03;;;9.60;83.10;;;;;;5088359;28;20020;-71
2021/11/24 12:30:47;;;;;;;7.65;4.32;;;9.60;83.30;;;;;;5086198;28;20046;-72
2021/11/24 12:33:29;;;;;;;6.32;4.22;;;9.60;83.40;;;;;;5070933;28;20027;-72
2021/11/24 12:36:16;;;;;;;6.63;4.30;;;9.60;83.40;;;;;;5088922;28;20513;-72
2021/11/24 12:38:46;;;;;;;7.30;4.70;;;9.60;83.40;;;;;;5084728;28;20573;-72
2021/11/24 12:41:17;;;;;;;5.68;4.00;;;9.60;83.40;;;;;;5085366;28;20135;-72
2021/11/24 12:43:46;;;;;;;6.75;4.55;;;9.60;83.60;;;;;;5070994;28;20513;-73
2021/11/24 12:46:24;;;;;;;6.47;4.78;;;9.60;83.70;;;;;;5086480;28;20039;-72
2021/11/24 12:48:55;;;;;;;6.85;4.82;;;9.60;83.70;;;;;;5090912;28;20024;-74
2021/11/24 12:51:30;;;;;;;7.68;5.28;;;9.60;83.60;;;;;;5087346;28;20387;-74
2021/11/24 12:54:01;;;;;;;9.05;6.03;;;9.60;83.60;;;;;;5082364;28;20047;-75
2021/11/24 12:56:31;;;;;;;8.57;6.13;;;9.70;83.60;;;;;;5089994;28;20550;-72
2021/11/24 12:59:04;;;;;;;10.77;7.45;;;9.70;83.70;;;;;;5074068;28;20620;-72